sensor_id;sensor_type;location;lat;lon;timestamp;P1;durP1;ratioP1;P2;durP2;ratioP2
9970;SDS011;5026;51.494;11.974;2023-03-19T00:01:59;18.07;;;10.17;;
9970;SDS011;5026;51.494;11.974;2023-03-19T00:04:26;19.47;;;11.27;;
9970;SDS011;5026;51.494;11.974;2023-03-19T00:06:53;18.37;;;10.70;;
9970;SDS011;5026;51.494;11.974;2023-03-19T00:09:20;22.70;;;11.73;;
9970;SDS011;5026;51.494;11.974;2023-03-19T00:11:47;17.57;;;10.70;;
9970;SDS011;5026;51.494;11.974;2023-03-19T00:14:15;20.13;;;11.37;;
9970;SDS011;5026;51.494;11.974;2023-03-19T00:16:43;21.53;;;9.87;;
9970;SDS011;5026;51.494;11.974;2023-03-19T00:19:10;17.97;;;9.30;;
9970;SDS011;5026;51.494;11.974;2023-03-19T00:21:37;15.90;;;8.90;;
9970;SDS011;5026;51.494;11.974;2023-03-19T00:24:04;15.80;;;8.93;;
9970;SDS011;5026;51.494;11.974;2023-03-19T00:26:32;14.97;;;9.00;;
9970;SDS011;5026;51.494;11.974;2023-03-19T00:29:00;15.17;;;9.90;;
9970;SDS011;5026;51.494;11.974;2023-03-19T00:31:27;15.50;;;9.93;;
9970;SDS011;5026;51.494;11.974;2023-03-19T00:33:57;19.17;;;9.40;;
9970;SDS011;5026;51.494;11.974;2023-03-19T00:36:24;14.70;;;8.63;;
9970;SDS011;5026;51.494;11.974;2023-03-19T00:38:52;14.97;;;8.17;;
9970;SDS011;5026;51.494;11.974;2023-03-19T00:41:19;14.50;;;7.70;;
9970;SDS011;5026;51.494;11.974;2023-03-19T00:43:49;13.77;;;8.53;;
9970;SDS011;5026;51.494;11.974;2023-03-19T00:46:18;12.90;;;8.33;;
9970;SDS011;5026;51.494;11.974;2023-03-19T00:48:45;12.30;;;8.27;;
9970;SDS011;5026;51.494;11.974;2023-03-19T00:51:13;14.53;;;8.13;;
9970;SDS011;5026;51.494;11.974;2023-03-19T00:53:41;13.37;;;8.00;;
9970;SDS011;5026;51.494;11.974;2023-03-19T00:56:09;14.77;;;8.53;;
9970;SDS011;5026;51.494;11.974;2023-03-19T00:58:38;13.90;;;7.97;;
9970;SDS011;5026;51.494;11.974;2023-03-19T01:01:05;14.47;;;8.30;;
9970;SDS011;5026;51.494;11.974;2023-03-19T01:03:32;11.67;;;7.53;;
9970;SDS011;5026;51.494;11.974;2023-03-19T01:05:59;13.27;;;7.73;;
9970;SDS011;5026;51.494;11.974;2023-03-19T01:08:28;12.17;;;7.60;;
9970;SDS011;5026;51.494;11.974;2023-03-19T01:10:55;12.07;;;7.43;;
9970;SDS011;5026;51.494;11.974;2023-03-19T01:13:22;12.90;;;6.63;;
9970;SDS011;5026;51.494;11.974;2023-03-19T01:15:50;13.53;;;6.67;;
9970;SDS011;5026;51.494;11.974;2023-03-19T01:18:18;9.63;;;6.70;;
9970;SDS011;5026;51.494;11.974;2023-03-19T01:20:47;13.50;;;7.90;;
9970;SDS011;5026;51.494;11.974;2023-03-19T01:23:14;14.20;;;6.70;;
9970;SDS011;5026;51.494;11.974;2023-03-19T01:25:42;10.87;;;7.13;;
9970;SDS011;5026;51.494;11.974;2023-03-19T01:28:09;11.30;;;6.60;;
9970;SDS011;5026;51.494;11.974;2023-03-19T01:30:39;10.80;;;7.37;;
9970;SDS011;5026;51.494;11.974;2023-03-19T01:33:06;15.57;;;8.17;;
9970;SDS011;5026;51.494;11.974;2023-03-19T01:35:33;12.87;;;6.93;;
9970;SDS011;5026;51.494;11.974;2023-03-19T01:38:00;10.07;;;7.00;;
9970;SDS011;5026;51.494;11.974;2023-03-19T01:40:27;13.33;;;7.23;;
9970;SDS011;5026;51.494;11.974;2023-03-19T01:43:10;13.03;;;7.03;;
9970;SDS011;5026;51.494;11.974;2023-03-19T01:45:39;9.13;;;6.93;;
9970;SDS011;5026;51.494;11.974;2023-03-19T01:48:08;11.90;;;6.60;;
9970;SDS011;5026;51.494;11.974;2023-03-19T01:50:44;13.50;;;7.63;;
9970;SDS011;5026;51.494;11.974;2023-03-19T01:53:14;12.23;;;6.77;;
9970;SDS011;5026;51.494;11.974;2023-03-19T01:55:43;14.43;;;7.53;;
9970;SDS011;5026;51.494;11.974;2023-03-19T01:58:13;10.60;;;7.17;;
9970;SDS011;5026;51.494;11.974;2023-03-19T02:00:40;10.87;;;7.17;;
9970;SDS011;5026;51.494;11.974;2023-03-19T02:03:07;10.30;;;6.20;;
9970;SDS011;5026;51.494;11.974;2023-03-19T02:05:35;11.57;;;7.27;;
9970;SDS011;5026;51.494;11.974;2023-03-19T02:08:05;14.50;;;7.90;;
9970;SDS011;5026;51.494;11.974;2023-03-19T02:10:34;13.70;;;7.83;;
9970;SDS011;5026;51.494;11.974;2023-03-19T02:13:02;12.50;;;7.83;;
9970;SDS011;5026;51.494;11.974;2023-03-19T02:15:30;11.43;;;6.87;;
9970;SDS011;5026;51.494;11.974;2023-03-19T02:17:57;12.93;;;7.10;;
9970;SDS011;5026;51.494;11.974;2023-03-19T02:20:25;14.57;;;7.20;;
9970;SDS011;5026;51.494;11.974;2023-03-19T02:22:59;12.07;;;7.43;;
9970;SDS011;5026;51.494;11.974;2023-03-19T02:25:34;15.27;;;7.97;;
9970;SDS011;5026;51.494;11.974;2023-03-19T02:28:06;15.40;;;8.07;;
9970;SDS011;5026;51.494;11.974;2023-03-19T02:30:35;12.97;;;7.83;;
9970;SDS011;5026;51.494;11.974;2023-03-19T02:33:03;16.10;;;8.37;;
9970;SDS011;5026;51.494;11.974;2023-03-19T02:35:31;14.43;;;8.13;;
9970;SDS011;5026;51.494;11.974;2023-03-19T02:38:01;13.93;;;7.63;;
9970;SDS011;5026;51.494;11.974;2023-03-19T02:40:31;15.17;;;7.67;;
9970;SDS011;5026;51.494;11.974;2023-03-19T02:43:03;10.73;;;7.43;;
9970;SDS011;5026;51.494;11.974;2023-03-19T02:45:32;10.67;;;6.97;;
9970;SDS011;5026;51.494;11.974;2023-03-19T02:48:00;16.57;;;8.33;;
9970;SDS011;5026;51.494;11.974;2023-03-19T02:50:27;10.53;;;7.73;;
9970;SDS011;5026;51.494;11.974;2023-03-19T02:52:55;9.37;;;6.97;;
9970;SDS011;5026;51.494;11.974;2023-03-19T02:55:25;11.43;;;7.60;;
9970;SDS011;5026;51.494;11.974;2023-03-19T02:57:52;15.67;;;8.00;;
9970;SDS011;5026;51.494;11.974;2023-03-19T03:00:19;11.57;;;7.77;;
9970;SDS011;5026;51.494;11.974;2023-03-19T03:02:48;13.83;;;8.37;;
9970;SDS011;5026;51.494;11.974;2023-03-19T03:05:15;12.20;;;7.93;;
9970;SDS011;5026;51.494;11.974;2023-03-19T03:07:42;14.30;;;8.73;;
9970;SDS011;5026;51.494;11.974;2023-03-19T03:10:11;14.97;;;8.57;;
9970;SDS011;5026;51.494;11.974;2023-03-19T03:12:38;12.90;;;9.07;;
9970;SDS011;5026;51.494;11.974;2023-03-19T03:15:06;16.73;;;9.00;;
9970;SDS011;5026;51.494;11.974;2023-03-19T03:17:35;14.67;;;9.13;;
9970;SDS011;5026;51.494;11.974;2023-03-19T03:20:05;14.17;;;9.10;;
9970;SDS011;5026;51.494;11.974;2023-03-19T03:22:33;16.67;;;8.90;;
9970;SDS011;5026;51.494;11.974;2023-03-19T03:25:00;14.03;;;8.37;;
9970;SDS011;5026;51.494;11.974;2023-03-19T03:27:27;12.67;;;8.60;;
9970;SDS011;5026;51.494;11.974;2023-03-19T03:29:55;12.93;;;8.57;;
9970;SDS011;5026;51.494;11.974;2023-03-19T03:32:23;15.90;;;8.33;;
9970;SDS011;5026;51.494;11.974;2023-03-19T03:34:50;16.00;;;9.00;;
9970;SDS011;5026;51.494;11.974;2023-03-19T03:37:18;15.03;;;8.90;;
9970;SDS011;5026;51.494;11.974;2023-03-19T03:39:45;14.50;;;8.90;;
9970;SDS011;5026;51.494;11.974;2023-03-19T03:42:12;12.90;;;8.33;;
9970;SDS011;5026;51.494;11.974;2023-03-19T03:44:39;14.30;;;8.77;;
9970;SDS011;5026;51.494;11.974;2023-03-19T03:47:06;11.77;;;8.13;;
9970;SDS011;5026;51.494;11.974;2023-03-19T03:49:33;13.67;;;8.70;;
9970;SDS011;5026;51.494;11.974;2023-03-19T03:52:00;16.17;;;9.13;;
9970;SDS011;5026;51.494;11.974;2023-03-19T03:54:28;12.87;;;8.60;;
9970;SDS011;5026;51.494;11.974;2023-03-19T03:56:55;11.90;;;7.97;;
9970;SDS011;5026;51.494;11.974;2023-03-19T03:59:22;13.77;;;8.77;;
9970;SDS011;5026;51.494;11.974;2023-03-19T04:01:49;14.60;;;8.43;;
9970;SDS011;5026;51.494;11.974;2023-03-19T04:04:16;14.80;;;8.07;;
9970;SDS011;5026;51.494;11.974;2023-03-19T04:06:44;14.83;;;8.97;;
9970;SDS011;5026;51.494;11.974;2023-03-19T04:09:11;15.53;;;8.73;;
9970;SDS011;5026;51.494;11.974;2023-03-19T04:11:39;12.47;;;8.70;;
9970;SDS011;5026;51.494;11.974;2023-03-19T04:14:07;11.93;;;8.47;;
9970;SDS011;5026;51.494;11.974;2023-03-19T04:16:34;14.20;;;8.87;;
9970;SDS011;5026;51.494;11.974;2023-03-19T04:19:01;14.30;;;8.50;;
9970;SDS011;5026;51.494;11.974;2023-03-19T04:21:29;16.27;;;8.50;;
9970;SDS011;5026;51.494;11.974;2023-03-19T04:23:56;13.07;;;8.37;;
9970;SDS011;5026;51.494;11.974;2023-03-19T04:26:23;14.57;;;8.37;;
9970;SDS011;5026;51.494;11.974;2023-03-19T04:28:51;13.37;;;8.20;;
9970;SDS011;5026;51.494;11.974;2023-03-19T04:31:18;22.07;;;8.53;;
9970;SDS011;5026;51.494;11.974;2023-03-19T04:33:46;14.60;;;9.03;;
9970;SDS011;5026;51.494;11.974;2023-03-19T04:36:13;15.43;;;8.90;;
9970;SDS011;5026;51.494;11.974;2023-03-19T04:38:41;14.17;;;7.93;;
9970;SDS011;5026;51.494;11.974;2023-03-19T04:41:08;13.80;;;8.13;;
9970;SDS011;5026;51.494;11.974;2023-03-19T04:43:35;15.20;;;8.57;;
9970;SDS011;5026;51.494;11.974;2023-03-19T04:46:04;15.37;;;9.27;;
9970;SDS011;5026;51.494;11.974;2023-03-19T04:48:32;20.63;;;9.47;;
9970;SDS011;5026;51.494;11.974;2023-03-19T04:51:00;17.93;;;9.20;;
9970;SDS011;5026;51.494;11.974;2023-03-19T04:53:27;15.50;;;8.43;;
9970;SDS011;5026;51.494;11.974;2023-03-19T04:55:55;15.80;;;9.20;;
9970;SDS011;5026;51.494;11.974;2023-03-19T04:58:22;14.60;;;9.17;;
9970;SDS011;5026;51.494;11.974;2023-03-19T05:00:48;13.73;;;9.20;;
9970;SDS011;5026;51.494;11.974;2023-03-19T05:03:17;14.90;;;9.07;;
9970;SDS011;5026;51.494;11.974;2023-03-19T05:05:44;12.47;;;8.90;;
9970;SDS011;5026;51.494;11.974;2023-03-19T05:08:11;17.10;;;9.73;;
9970;SDS011;5026;51.494;11.974;2023-03-19T05:10:38;14.00;;;9.13;;
9970;SDS011;5026;51.494;11.974;2023-03-19T05:13:05;18.73;;;9.37;;
9970;SDS011;5026;51.494;11.974;2023-03-19T05:15:33;15.23;;;9.50;;
9970;SDS011;5026;51.494;11.974;2023-03-19T05:18:00;14.53;;;9.50;;
9970;SDS011;5026;51.494;11.974;2023-03-19T05:20:28;14.90;;;9.17;;
9970;SDS011;5026;51.494;11.974;2023-03-19T05:22:55;12.97;;;9.37;;
9970;SDS011;5026;51.494;11.974;2023-03-19T05:25:22;14.73;;;9.73;;
9970;SDS011;5026;51.494;11.974;2023-03-19T05:27:49;17.00;;;9.73;;
9970;SDS011;5026;51.494;11.974;2023-03-19T05:30:16;17.70;;;9.53;;
9970;SDS011;5026;51.494;11.974;2023-03-19T05:32:43;14.87;;;8.97;;
9970;SDS011;5026;51.494;11.974;2023-03-19T05:35:10;16.20;;;10.10;;
9970;SDS011;5026;51.494;11.974;2023-03-19T05:37:39;14.17;;;9.03;;
9970;SDS011;5026;51.494;11.974;2023-03-19T05:40:06;14.30;;;9.40;;
9970;SDS011;5026;51.494;11.974;2023-03-19T05:42:34;14.20;;;9.53;;
9970;SDS011;5026;51.494;11.974;2023-03-19T05:45:02;17.10;;;9.60;;
9970;SDS011;5026;51.494;11.974;2023-03-19T05:47:29;17.00;;;9.90;;
9970;SDS011;5026;51.494;11.974;2023-03-19T05:49:56;14.47;;;9.00;;
9970;SDS011;5026;51.494;11.974;2023-03-19T05:52:23;17.83;;;8.67;;
9970;SDS011;5026;51.494;11.974;2023-03-19T05:54:52;14.23;;;9.50;;
9970;SDS011;5026;51.494;11.974;2023-03-19T05:57:19;21.27;;;9.43;;
9970;SDS011;5026;51.494;11.974;2023-03-19T05:59:46;16.87;;;9.43;;
9970;SDS011;5026;51.494;11.974;2023-03-19T06:02:14;14.47;;;10.07;;
9970;SDS011;5026;51.494;11.974;2023-03-19T06:04:41;14.40;;;9.50;;
9970;SDS011;5026;51.494;11.974;2023-03-19T06:07:08;13.00;;;9.20;;
9970;SDS011;5026;51.494;11.974;2023-03-19T06:09:35;15.47;;;9.27;;
9970;SDS011;5026;51.494;11.974;2023-03-19T06:12:04;12.93;;;8.70;;
9970;SDS011;5026;51.494;11.974;2023-03-19T06:14:31;12.33;;;9.00;;
9970;SDS011;5026;51.494;11.974;2023-03-19T06:16:58;15.27;;;9.77;;
9970;SDS011;5026;51.494;11.974;2023-03-19T06:19:25;19.30;;;10.37;;
9970;SDS011;5026;51.494;11.974;2023-03-19T06:21:52;19.30;;;9.90;;
9970;SDS011;5026;51.494;11.974;2023-03-19T06:24:18;12.77;;;9.00;;
9970;SDS011;5026;51.494;11.974;2023-03-19T06:26:45;15.87;;;9.17;;
9970;SDS011;5026;51.494;11.974;2023-03-19T06:29:14;16.43;;;9.80;;
9970;SDS011;5026;51.494;11.974;2023-03-19T06:31:40;15.43;;;9.40;;
9970;SDS011;5026;51.494;11.974;2023-03-19T06:34:08;15.10;;;9.47;;
9970;SDS011;5026;51.494;11.974;2023-03-19T06:36:35;17.87;;;10.03;;
9970;SDS011;5026;51.494;11.974;2023-03-19T06:39:02;14.63;;;10.00;;
9970;SDS011;5026;51.494;11.974;2023-03-19T06:41:29;13.73;;;9.53;;
9970;SDS011;5026;51.494;11.974;2023-03-19T06:43:56;14.67;;;8.97;;
9970;SDS011;5026;51.494;11.974;2023-03-19T06:46:24;12.03;;;9.03;;
9970;SDS011;5026;51.494;11.974;2023-03-19T06:48:51;16.37;;;9.33;;
9970;SDS011;5026;51.494;11.974;2023-03-19T06:51:19;14.27;;;9.20;;
9970;SDS011;5026;51.494;11.974;2023-03-19T06:53:46;13.30;;;9.13;;
9970;SDS011;5026;51.494;11.974;2023-03-19T06:56:12;14.53;;;9.27;;
9970;SDS011;5026;51.494;11.974;2023-03-19T06:58:40;17.20;;;9.07;;
9970;SDS011;5026;51.494;11.974;2023-03-19T07:01:07;12.00;;;8.87;;
9970;SDS011;5026;51.494;11.974;2023-03-19T07:03:35;14.50;;;8.83;;
9970;SDS011;5026;51.494;11.974;2023-03-19T07:06:02;12.97;;;8.67;;
9970;SDS011;5026;51.494;11.974;2023-03-19T07:08:31;16.47;;;9.27;;
9970;SDS011;5026;51.494;11.974;2023-03-19T07:11:01;14.70;;;9.23;;
9970;SDS011;5026;51.494;11.974;2023-03-19T07:13:29;12.67;;;8.80;;
9970;SDS011;5026;51.494;11.974;2023-03-19T07:15:57;12.77;;;8.93;;
9970;SDS011;5026;51.494;11.974;2023-03-19T07:18:24;16.77;;;9.45;;
9970;SDS011;5026;51.494;11.974;2023-03-19T07:20:53;14.73;;;9.88;;
9970;SDS011;5026;51.494;11.974;2023-03-19T07:23:20;14.95;;;9.18;;
9970;SDS011;5026;51.494;11.974;2023-03-19T07:25:47;10.38;;;8.35;;
9970;SDS011;5026;51.494;11.974;2023-03-19T07:28:14;12.73;;;8.77;;
9970;SDS011;5026;51.494;11.974;2023-03-19T07:30:41;10.27;;;8.02;;
9970;SDS011;5026;51.494;11.974;2023-03-19T07:33:08;10.38;;;7.88;;
9970;SDS011;5026;51.494;11.974;2023-03-19T07:35:35;13.93;;;8.38;;
9970;SDS011;5026;51.494;11.974;2023-03-19T07:38:03;12.98;;;8.25;;
9970;SDS011;5026;51.494;11.974;2023-03-19T07:40:30;9.77;;;7.32;;
9970;SDS011;5026;51.494;11.974;2023-03-19T07:42:57;12.93;;;8.32;;
9970;SDS011;5026;51.494;11.974;2023-03-19T07:45:24;10.95;;;8.02;;
9970;SDS011;5026;51.494;11.974;2023-03-19T07:47:51;10.43;;;7.78;;
9970;SDS011;5026;51.494;11.974;2023-03-19T07:50:18;11.63;;;7.57;;
9970;SDS011;5026;51.494;11.974;2023-03-19T07:52:45;10.43;;;6.80;;
9970;SDS011;5026;51.494;11.974;2023-03-19T07:55:13;9.20;;;6.78;;
9970;SDS011;5026;51.494;11.974;2023-03-19T07:57:41;11.57;;;7.05;;
9970;SDS011;5026;51.494;11.974;2023-03-19T08:00:08;9.90;;;6.70;;
9970;SDS011;5026;51.494;11.974;2023-03-19T08:02:36;8.65;;;7.03;;
9970;SDS011;5026;51.494;11.974;2023-03-19T08:05:04;10.50;;;7.55;;
9970;SDS011;5026;51.494;11.974;2023-03-19T08:07:32;8.70;;;6.60;;
9970;SDS011;5026;51.494;11.974;2023-03-19T08:09:58;9.32;;;6.40;;
9970;SDS011;5026;51.494;11.974;2023-03-19T08:12:27;7.55;;;6.13;;
9970;SDS011;5026;51.494;11.974;2023-03-19T08:14:55;8.18;;;6.10;;
9970;SDS011;5026;51.494;11.974;2023-03-19T08:17:22;8.70;;;6.10;;
9970;SDS011;5026;51.494;11.974;2023-03-19T08:19:50;8.88;;;6.28;;
9970;SDS011;5026;51.494;11.974;2023-03-19T08:22:16;8.68;;;6.22;;
9970;SDS011;5026;51.494;11.974;2023-03-19T08:24:43;7.40;;;6.28;;
9970;SDS011;5026;51.494;11.974;2023-03-19T08:27:10;8.48;;;6.63;;
9970;SDS011;5026;51.494;11.974;2023-03-19T08:29:39;9.10;;;6.55;;
9970;SDS011;5026;51.494;11.974;2023-03-19T08:32:06;11.38;;;6.70;;
9970;SDS011;5026;51.494;11.974;2023-03-19T08:34:33;11.60;;;7.00;;
9970;SDS011;5026;51.494;11.974;2023-03-19T08:37:00;8.93;;;6.10;;
9970;SDS011;5026;51.494;11.974;2023-03-19T08:39:27;6.78;;;6.07;;
9970;SDS011;5026;51.494;11.974;2023-03-19T08:41:54;7.40;;;5.90;;
9970;SDS011;5026;51.494;11.974;2023-03-19T08:44:21;7.90;;;6.22;;
9970;SDS011;5026;51.494;11.974;2023-03-19T08:46:49;7.88;;;5.70;;
9970;SDS011;5026;51.494;11.974;2023-03-19T08:49:16;6.70;;;6.00;;
9970;SDS011;5026;51.494;11.974;2023-03-19T08:51:44;7.93;;;6.15;;
9970;SDS011;5026;51.494;11.974;2023-03-19T08:54:11;9.88;;;5.88;;
9970;SDS011;5026;51.494;11.974;2023-03-19T08:56:38;8.38;;;6.10;;
9970;SDS011;5026;51.494;11.974;2023-03-19T08:59:05;7.57;;;6.05;;
9970;SDS011;5026;51.494;11.974;2023-03-19T09:01:32;8.95;;;6.32;;
9970;SDS011;5026;51.494;11.974;2023-03-19T09:04:00;8.02;;;5.95;;
9970;SDS011;5026;51.494;11.974;2023-03-19T09:06:27;6.75;;;5.35;;
9970;SDS011;5026;51.494;11.974;2023-03-19T09:08:55;7.10;;;6.00;;
9970;SDS011;5026;51.494;11.974;2023-03-19T09:11:22;8.05;;;6.65;;
9970;SDS011;5026;51.494;11.974;2023-03-19T09:13:49;8.23;;;5.70;;
9970;SDS011;5026;51.494;11.974;2023-03-19T09:16:15;10.32;;;5.90;;
9970;SDS011;5026;51.494;11.974;2023-03-19T09:18:42;12.07;;;6.15;;
9970;SDS011;5026;51.494;11.974;2023-03-19T09:21:11;9.70;;;6.57;;
9970;SDS011;5026;51.494;11.974;2023-03-19T09:23:38;7.60;;;5.80;;
9970;SDS011;5026;51.494;11.974;2023-03-19T09:26:05;9.57;;;6.15;;
9970;SDS011;5026;51.494;11.974;2023-03-19T09:28:32;8.88;;;6.15;;
9970;SDS011;5026;51.494;11.974;2023-03-19T09:30:59;7.75;;;5.45;;
9970;SDS011;5026;51.494;11.974;2023-03-19T09:33:31;7.68;;;5.50;;
9970;SDS011;5026;51.494;11.974;2023-03-19T09:35:58;8.90;;;6.10;;
9970;SDS011;5026;51.494;11.974;2023-03-19T09:38:26;13.85;;;6.22;;
9970;SDS011;5026;51.494;11.974;2023-03-19T09:41:02;8.20;;;6.25;;
9970;SDS011;5026;51.494;11.974;2023-03-19T09:43:38;7.85;;;6.25;;
9970;SDS011;5026;51.494;11.974;2023-03-19T09:46:17;6.60;;;5.40;;
9970;SDS011;5026;51.494;11.974;2023-03-19T09:48:48;6.93;;;5.45;;
9970;SDS011;5026;51.494;11.974;2023-03-19T09:51:20;6.72;;;5.30;;
9970;SDS011;5026;51.494;11.974;2023-03-19T09:53:56;7.57;;;5.53;;
9970;SDS011;5026;51.494;11.974;2023-03-19T09:56:25;7.50;;;5.53;;
9970;SDS011;5026;51.494;11.974;2023-03-19T09:58:52;8.95;;;5.72;;
9970;SDS011;5026;51.494;11.974;2023-03-19T10:01:22;11.63;;;6.72;;
9970;SDS011;5026;51.494;11.974;2023-03-19T10:03:59;9.98;;;5.50;;
9970;SDS011;5026;51.494;11.974;2023-03-19T10:06:41;6.50;;;4.88;;
9970;SDS011;5026;51.494;11.974;2023-03-19T10:09:25;8.35;;;6.10;;
9970;SDS011;5026;51.494;11.974;2023-03-19T10:12:12;10.13;;;6.07;;
9970;SDS011;5026;51.494;11.974;2023-03-19T10:14:56;10.07;;;5.50;;
9970;SDS011;5026;51.494;11.974;2023-03-19T10:17:29;7.28;;;5.35;;
9970;SDS011;5026;51.494;11.974;2023-03-19T10:20:00;8.65;;;5.28;;
9970;SDS011;5026;51.494;11.974;2023-03-19T10:22:32;9.00;;;6.00;;
9970;SDS011;5026;51.494;11.974;2023-03-19T10:25:07;6.43;;;4.85;;
9970;SDS011;5026;51.494;11.974;2023-03-19T10:27:38;6.85;;;5.38;;
9970;SDS011;5026;51.494;11.974;2023-03-19T10:30:13;7.68;;;5.85;;
9970;SDS011;5026;51.494;11.974;2023-03-19T10:32:42;8.77;;;5.40;;
9970;SDS011;5026;51.494;11.974;2023-03-19T10:35:15;9.25;;;5.80;;
9970;SDS011;5026;51.494;11.974;2023-03-19T10:37:45;8.20;;;5.75;;
9970;SDS011;5026;51.494;11.974;2023-03-19T10:40:18;8.50;;;5.60;;
9970;SDS011;5026;51.494;11.974;2023-03-19T10:42:55;8.15;;;5.78;;
9970;SDS011;5026;51.494;11.974;2023-03-19T10:45:32;6.43;;;4.63;;
9970;SDS011;5026;51.494;11.974;2023-03-19T10:48:01;7.28;;;4.97;;
9970;SDS011;5026;51.494;11.974;2023-03-19T10:50:30;10.95;;;5.57;;
9970;SDS011;5026;51.494;11.974;2023-03-19T10:53:04;8.95;;;5.68;;
9970;SDS011;5026;51.494;11.974;2023-03-19T10:55:49;7.15;;;5.72;;
9970;SDS011;5026;51.494;11.974;2023-03-19T10:58:20;7.55;;;5.20;;
9970;SDS011;5026;51.494;11.974;2023-03-19T11:00:54;10.15;;;5.60;;
9970;SDS011;5026;51.494;11.974;2023-03-19T11:03:28;11.07;;;6.00;;
9970;SDS011;5026;51.494;11.974;2023-03-19T11:06:02;8.20;;;5.43;;
9970;SDS011;5026;51.494;11.974;2023-03-19T11:08:33;9.27;;;5.70;;
9970;SDS011;5026;51.494;11.974;2023-03-19T11:11:02;12.63;;;6.07;;
9970;SDS011;5026;51.494;11.974;2023-03-19T11:13:29;8.55;;;5.80;;
9970;SDS011;5026;51.494;11.974;2023-03-19T11:16:00;7.05;;;5.53;;
9970;SDS011;5026;51.494;11.974;2023-03-19T11:18:28;5.90;;;5.30;;
9970;SDS011;5026;51.494;11.974;2023-03-19T11:21:04;7.80;;;5.63;;
9970;SDS011;5026;51.494;11.974;2023-03-19T11:23:36;10.15;;;5.30;;
9970;SDS011;5026;51.494;11.974;2023-03-19T11:26:07;9.25;;;5.32;;
9970;SDS011;5026;51.494;11.974;2023-03-19T11:28:35;7.50;;;5.13;;
9970;SDS011;5026;51.494;11.974;2023-03-19T11:31:05;9.68;;;5.05;;
9970;SDS011;5026;51.494;11.974;2023-03-19T11:33:47;9.75;;;5.50;;
9970;SDS011;5026;51.494;11.974;2023-03-19T11:36:27;5.88;;;4.97;;
9970;SDS011;5026;51.494;11.974;2023-03-19T11:38:58;5.57;;;4.63;;
9970;SDS011;5026;51.494;11.974;2023-03-19T11:41:39;6.55;;;5.28;;
9970;SDS011;5026;51.494;11.974;2023-03-19T11:44:19;7.50;;;4.70;;
9970;SDS011;5026;51.494;11.974;2023-03-19T11:46:52;7.82;;;5.05;;
9970;SDS011;5026;51.494;11.974;2023-03-19T11:49:46;6.43;;;5.20;;
9970;SDS011;5026;51.494;11.974;2023-03-19T11:52:22;10.02;;;5.10;;
9970;SDS011;5026;51.494;11.974;2023-03-19T11:54:57;9.80;;;4.78;;
9970;SDS011;5026;51.494;11.974;2023-03-19T11:57:37;8.35;;;5.05;;
9970;SDS011;5026;51.494;11.974;2023-03-19T12:00:17;7.10;;;4.57;;
9970;SDS011;5026;51.494;11.974;2023-03-19T12:05:48;7.63;;;4.10;;
9970;SDS011;5026;51.494;11.974;2023-03-19T12:08:27;5.07;;;3.30;;
9970;SDS011;5026;51.494;11.974;2023-03-19T12:11:06;3.58;;;3.28;;
9970;SDS011;5026;51.494;11.974;2023-03-19T12:13:52;7.05;;;4.13;;
9970;SDS011;5026;51.494;11.974;2023-03-19T12:16:52;7.78;;;3.67;;
9970;SDS011;5026;51.494;11.974;2023-03-19T12:19:37;6.68;;;3.80;;
9970;SDS011;5026;51.494;11.974;2023-03-19T12:22:15;9.68;;;3.65;;
9970;SDS011;5026;51.494;11.974;2023-03-19T12:24:56;4.38;;;3.50;;
9970;SDS011;5026;51.494;11.974;2023-03-19T12:27:37;8.15;;;4.07;;
9970;SDS011;5026;51.494;11.974;2023-03-19T12:30:17;6.43;;;4.13;;
9970;SDS011;5026;51.494;11.974;2023-03-19T12:35:36;8.13;;;5.25;;
9970;SDS011;5026;51.494;11.974;2023-03-19T12:38:05;5.15;;;4.28;;
9970;SDS011;5026;51.494;11.974;2023-03-19T12:40:39;8.13;;;3.63;;
9970;SDS011;5026;51.494;11.974;2023-03-19T12:43:12;5.70;;;4.10;;
9970;SDS011;5026;51.494;11.974;2023-03-19T12:45:44;7.63;;;4.35;;
9970;SDS011;5026;51.494;11.974;2023-03-19T12:48:16;7.88;;;4.07;;
9970;SDS011;5026;51.494;11.974;2023-03-19T12:50:49;6.57;;;3.90;;
9970;SDS011;5026;51.494;11.974;2023-03-19T12:53:24;3.60;;;3.17;;
9970;SDS011;5026;51.494;11.974;2023-03-19T12:55:56;4.32;;;2.78;;
9970;SDS011;5026;51.494;11.974;2023-03-19T12:58:35;8.57;;;2.80;;
9970;SDS011;5026;51.494;11.974;2023-03-19T13:01:10;3.45;;;2.85;;
9970;SDS011;5026;51.494;11.974;2023-03-19T13:03:40;4.88;;;3.10;;
9970;SDS011;5026;51.494;11.974;2023-03-19T13:06:15;5.85;;;3.03;;
9970;SDS011;5026;51.494;11.974;2023-03-19T13:08:47;4.57;;;3.23;;
9970;SDS011;5026;51.494;11.974;2023-03-19T13:11:18;4.45;;;3.25;;
9970;SDS011;5026;51.494;11.974;2023-03-19T13:13:54;8.10;;;3.90;;
9970;SDS011;5026;51.494;11.974;2023-03-19T13:16:31;4.68;;;3.20;;
9970;SDS011;5026;51.494;11.974;2023-03-19T13:19:06;5.70;;;3.55;;
9970;SDS011;5026;51.494;11.974;2023-03-19T13:21:42;5.75;;;2.97;;
9970;SDS011;5026;51.494;11.974;2023-03-19T13:24:14;3.80;;;2.75;;
9970;SDS011;5026;51.494;11.974;2023-03-19T13:26:46;3.65;;;2.70;;
9970;SDS011;5026;51.494;11.974;2023-03-19T13:29:16;3.55;;;2.72;;
9970;SDS011;5026;51.494;11.974;2023-03-19T13:31:47;3.63;;;2.65;;
9970;SDS011;5026;51.494;11.974;2023-03-19T13:34:23;4.10;;;2.45;;
9970;SDS011;5026;51.494;11.974;2023-03-19T13:36:52;6.10;;;3.47;;
9970;SDS011;5026;51.494;11.974;2023-03-19T13:39:26;9.18;;;4.47;;
9970;SDS011;5026;51.494;11.974;2023-03-19T13:41:57;22.92;;;10.55;;
9970;SDS011;5026;51.494;11.974;2023-03-19T13:44:38;44.17;;;20.77;;
9970;SDS011;5026;51.494;11.974;2023-03-19T13:50:21;7.70;;;5.45;;
9970;SDS011;5026;51.494;11.974;2023-03-19T13:52:50;5.93;;;2.90;;
9970;SDS011;5026;51.494;11.974;2023-03-19T13:55:29;3.47;;;2.45;;
9970;SDS011;5026;51.494;11.974;2023-03-19T13:58:04;3.25;;;2.60;;
9970;SDS011;5026;51.494;11.974;2023-03-19T14:00:55;3.60;;;2.33;;
9970;SDS011;5026;51.494;11.974;2023-03-19T14:03:26;2.53;;;2.30;;
9970;SDS011;5026;51.494;11.974;2023-03-19T14:05:55;5.55;;;2.40;;
9970;SDS011;5026;51.494;11.974;2023-03-19T14:08:24;4.47;;;2.30;;
9970;SDS011;5026;51.494;11.974;2023-03-19T14:10:53;4.15;;;1.98;;
9970;SDS011;5026;51.494;11.974;2023-03-19T14:13:25;2.55;;;2.33;;
9970;SDS011;5026;51.494;11.974;2023-03-19T14:15:59;3.65;;;2.47;;
9970;SDS011;5026;51.494;11.974;2023-03-19T14:18:39;3.87;;;2.70;;
9970;SDS011;5026;51.494;11.974;2023-03-19T14:21:09;4.05;;;2.50;;
9970;SDS011;5026;51.494;11.974;2023-03-19T14:23:39;2.45;;;1.88;;
9970;SDS011;5026;51.494;11.974;2023-03-19T14:26:15;6.45;;;2.95;;
9970;SDS011;5026;51.494;11.974;2023-03-19T14:28:45;5.22;;;3.05;;
9970;SDS011;5026;51.494;11.974;2023-03-19T14:31:25;4.05;;;2.67;;
9970;SDS011;5026;51.494;11.974;2023-03-19T14:34:00;3.65;;;2.65;;
9970;SDS011;5026;51.494;11.974;2023-03-19T14:36:33;5.75;;;3.05;;
9970;SDS011;5026;51.494;11.974;2023-03-19T14:39:02;6.57;;;3.20;;
9970;SDS011;5026;51.494;11.974;2023-03-19T14:41:39;4.22;;;3.00;;
9970;SDS011;5026;51.494;11.974;2023-03-19T14:47:23;3.00;;;1.95;;
9970;SDS011;5026;51.494;11.974;2023-03-19T14:52:58;2.13;;;1.83;;
9970;SDS011;5026;51.494;11.974;2023-03-19T14:55:32;2.13;;;2.03;;
9970;SDS011;5026;51.494;11.974;2023-03-19T14:57:59;4.35;;;2.17;;
9970;SDS011;5026;51.494;11.974;2023-03-19T15:00:28;3.83;;;2.03;;
9970;SDS011;5026;51.494;11.974;2023-03-19T15:03:03;4.30;;;1.90;;
9970;SDS011;5026;51.494;11.974;2023-03-19T15:05:38;4.63;;;2.15;;
9970;SDS011;5026;51.494;11.974;2023-03-19T15:08:05;1.92;;;1.83;;
9970;SDS011;5026;51.494;11.974;2023-03-19T15:10:40;4.10;;;2.30;;
9970;SDS011;5026;51.494;11.974;2023-03-19T15:13:19;3.30;;;2.00;;
9970;SDS011;5026;51.494;11.974;2023-03-19T15:16:14;5.20;;;2.20;;
9970;SDS011;5026;51.494;11.974;2023-03-19T15:18:56;4.30;;;1.98;;
9970;SDS011;5026;51.494;11.974;2023-03-19T15:21:24;4.82;;;2.80;;
9970;SDS011;5026;51.494;11.974;2023-03-19T15:23:53;3.10;;;2.58;;
9970;SDS011;5026;51.494;11.974;2023-03-19T15:29:05;3.58;;;2.17;;